Wardner, Idaho
Current Conditions -  °F | °C
As of 3:07 AM on Sunday 21 Dec 2014 (Local Time) from KMLP Reporting Station
Light Snow Light Snow  
Wind Chill: 24°   Ceiling: 600
Heat Index: 33°   Visibility: 3mi
Dew Point: 31°   Wind: 12mph
Humidity: 92%   Direction: 230°SW
Pressure: 29.43"   Gusts: 25mph
Location:  47.7187°N, 116.087°W
Report Text: KMLP 211107Z AUTO 23010G22KT 190V260 3SM -SN BR BKN006 OVC013 01/M01 A2943 RMK AO2 UPE1056SNB1056 P0000 T00061006 $
Loading
Personal Weather Stations






























Interactive Weather Map New forecast layout! Learn more

10-Day Weather Forecast

Advertisements
Track Severe Weather on mobile